sensor_id;sensor_type;location;lat;lon;timestamp;P1;durP1;ratioP1;P2;durP2;ratioP2
34960;SDS011;30789;52.030;7.110;2024-01-27T00:02:24;14.60;;;3.63;;
34960;SDS011;30789;52.030;7.110;2024-01-27T00:04:56;18.65;;;4.45;;
34960;SDS011;30789;52.030;7.110;2024-01-27T00:07:25;13.32;;;3.22;;
34960;SDS011;30789;52.030;7.110;2024-01-27T00:09:53;13.07;;;3.22;;
34960;SDS011;30789;52.030;7.110;2024-01-27T00:12:20;22.50;;;3.75;;
34960;SDS011;30789;52.030;7.110;2024-01-27T00:14:47;13.02;;;3.55;;
34960;SDS011;30789;52.030;7.110;2024-01-27T00:17:16;11.88;;;3.67;;
34960;SDS011;30789;52.030;7.110;2024-01-27T00:19:44;17.65;;;3.28;;
34960;SDS011;30789;52.030;7.110;2024-01-27T00:22:13;10.43;;;3.05;;
34960;SDS011;30789;52.030;7.110;2024-01-27T00:24:39;13.43;;;3.45;;
34960;SDS011;30789;52.030;7.110;2024-01-27T00:27:06;16.35;;;3.90;;
34960;SDS011;30789;52.030;7.110;2024-01-27T00:29:32;11.15;;;3.60;;
34960;SDS011;30789;52.030;7.110;2024-01-27T00:31:59;16.58;;;3.55;;
34960;SDS011;30789;52.030;7.110;2024-01-27T00:34:27;20.92;;;3.60;;
34960;SDS011;30789;52.030;7.110;2024-01-27T00:36:54;20.08;;;4.05;;
34960;SDS011;30789;52.030;7.110;2024-01-27T00:39:22;11.32;;;3.58;;
34960;SDS011;30789;52.030;7.110;2024-01-27T00:41:49;13.13;;;4.15;;
34960;SDS011;30789;52.030;7.110;2024-01-27T00:44:16;20.30;;;3.95;;
34960;SDS011;30789;52.030;7.110;2024-01-27T00:46:46;18.23;;;4.30;;
34960;SDS011;30789;52.030;7.110;2024-01-27T00:49:13;18.13;;;3.70;;
34960;SDS011;30789;52.030;7.110;2024-01-27T00:51:39;13.63;;;4.15;;
34960;SDS011;30789;52.030;7.110;2024-01-27T00:54:06;19.48;;;4.15;;
34960;SDS011;30789;52.030;7.110;2024-01-27T00:56:34;12.82;;;4.22;;
34960;SDS011;30789;52.030;7.110;2024-01-27T00:59:01;22.17;;;4.22;;
34960;SDS011;30789;52.030;7.110;2024-01-27T01:01:31;14.57;;;3.80;;
34960;SDS011;30789;52.030;7.110;2024-01-27T01:04:00;11.07;;;3.83;;
34960;SDS011;30789;52.030;7.110;2024-01-27T01:06:28;22.58;;;4.70;;
34960;SDS011;30789;52.030;7.110;2024-01-27T01:08:54;12.70;;;3.80;;
34960;SDS011;30789;52.030;7.110;2024-01-27T01:11:21;14.18;;;4.28;;
34960;SDS011;30789;52.030;7.110;2024-01-27T01:13:49;15.55;;;3.80;;
34960;SDS011;30789;52.030;7.110;2024-01-27T01:16:17;14.52;;;4.10;;
34960;SDS011;30789;52.030;7.110;2024-01-27T01:18:44;14.30;;;3.53;;
34960;SDS011;30789;52.030;7.110;2024-01-27T01:21:11;12.18;;;4.03;;
34960;SDS011;30789;52.030;7.110;2024-01-27T01:23:38;16.40;;;4.07;;
34960;SDS011;30789;52.030;7.110;2024-01-27T01:26:04;16.35;;;3.65;;
34960;SDS011;30789;52.030;7.110;2024-01-27T01:28:31;17.67;;;4.30;;
34960;SDS011;30789;52.030;7.110;2024-01-27T01:31:01;16.08;;;4.53;;
34960;SDS011;30789;52.030;7.110;2024-01-27T01:33:30;11.27;;;4.10;;
34960;SDS011;30789;52.030;7.110;2024-01-27T01:35:57;16.00;;;4.32;;
34960;SDS011;30789;52.030;7.110;2024-01-27T01:38:23;13.70;;;3.80;;
34960;SDS011;30789;52.030;7.110;2024-01-27T01:40:50;16.65;;;4.13;;
34960;SDS011;30789;52.030;7.110;2024-01-27T01:43:17;15.80;;;4.22;;
34960;SDS011;30789;52.030;7.110;2024-01-27T01:45:45;11.77;;;4.00;;
34960;SDS011;30789;52.030;7.110;2024-01-27T01:48:13;19.42;;;4.47;;
34960;SDS011;30789;52.030;7.110;2024-01-27T01:50:43;13.15;;;4.10;;
34960;SDS011;30789;52.030;7.110;2024-01-27T01:53:13;10.35;;;4.03;;
34960;SDS011;30789;52.030;7.110;2024-01-27T01:55:40;12.80;;;3.88;;
34960;SDS011;30789;52.030;7.110;2024-01-27T01:58:06;10.38;;;3.70;;
34960;SDS011;30789;52.030;7.110;2024-01-27T02:00:33;14.27;;;4.03;;
34960;SDS011;30789;52.030;7.110;2024-01-27T02:03:04;10.68;;;3.85;;
34960;SDS011;30789;52.030;7.110;2024-01-27T02:05:32;9.80;;;3.72;;
34960;SDS011;30789;52.030;7.110;2024-01-27T02:08:02;13.50;;;3.92;;
34960;SDS011;30789;52.030;7.110;2024-01-27T02:10:29;18.77;;;3.60;;
34960;SDS011;30789;52.030;7.110;2024-01-27T02:13:01;10.30;;;4.03;;
34960;SDS011;30789;52.030;7.110;2024-01-27T02:15:28;12.60;;;3.65;;
34960;SDS011;30789;52.030;7.110;2024-01-27T02:17:58;10.23;;;4.38;;
34960;SDS011;30789;52.030;7.110;2024-01-27T02:20:27;15.18;;;3.92;;
34960;SDS011;30789;52.030;7.110;2024-01-27T02:22:55;15.75;;;3.72;;
34960;SDS011;30789;52.030;7.110;2024-01-27T02:25:24;12.32;;;4.18;;
34960;SDS011;30789;52.030;7.110;2024-01-27T02:27:51;21.83;;;3.72;;
34960;SDS011;30789;52.030;7.110;2024-01-27T02:30:17;15.10;;;4.25;;
34960;SDS011;30789;52.030;7.110;2024-01-27T02:32:46;13.55;;;4.13;;
34960;SDS011;30789;52.030;7.110;2024-01-27T02:35:13;10.40;;;4.00;;
34960;SDS011;30789;52.030;7.110;2024-01-27T02:37:42;14.77;;;4.25;;
34960;SDS011;30789;52.030;7.110;2024-01-27T02:40:09;16.15;;;4.57;;
34960;SDS011;30789;52.030;7.110;2024-01-27T02:42:44;14.85;;;4.05;;
34960;SDS011;30789;52.030;7.110;2024-01-27T02:45:11;13.90;;;3.97;;
34960;SDS011;30789;52.030;7.110;2024-01-27T02:47:39;14.38;;;4.22;;
34960;SDS011;30789;52.030;7.110;2024-01-27T02:50:07;16.88;;;4.32;;
34960;SDS011;30789;52.030;7.110;2024-01-27T02:52:37;19.63;;;4.90;;
34960;SDS011;30789;52.030;7.110;2024-01-27T02:55:07;15.93;;;4.88;;
34960;SDS011;30789;52.030;7.110;2024-01-27T02:57:36;15.05;;;3.92;;
34960;SDS011;30789;52.030;7.110;2024-01-27T03:00:05;14.73;;;3.78;;
34960;SDS011;30789;52.030;7.110;2024-01-27T03:02:34;11.15;;;4.22;;
34960;SDS011;30789;52.030;7.110;2024-01-27T03:05:01;17.17;;;4.35;;
34960;SDS011;30789;52.030;7.110;2024-01-27T03:07:27;14.30;;;4.28;;
34960;SDS011;30789;52.030;7.110;2024-01-27T03:09:57;13.00;;;4.10;;
34960;SDS011;30789;52.030;7.110;2024-01-27T03:12:24;21.58;;;4.30;;
34960;SDS011;30789;52.030;7.110;2024-01-27T03:14:52;12.70;;;4.05;;
34960;SDS011;30789;52.030;7.110;2024-01-27T03:17:22;15.88;;;4.22;;
34960;SDS011;30789;52.030;7.110;2024-01-27T03:19:49;12.88;;;4.20;;
34960;SDS011;30789;52.030;7.110;2024-01-27T03:22:15;26.48;;;4.72;;
34960;SDS011;30789;52.030;7.110;2024-01-27T03:24:45;15.63;;;4.35;;
34960;SDS011;30789;52.030;7.110;2024-01-27T03:27:18;17.50;;;4.63;;
34960;SDS011;30789;52.030;7.110;2024-01-27T03:29:46;19.80;;;4.43;;
34960;SDS011;30789;52.030;7.110;2024-01-27T03:32:23;17.98;;;4.43;;
34960;SDS011;30789;52.030;7.110;2024-01-27T03:34:51;16.27;;;4.45;;
34960;SDS011;30789;52.030;7.110;2024-01-27T03:37:17;10.40;;;4.15;;
34960;SDS011;30789;52.030;7.110;2024-01-27T03:39:44;14.95;;;4.63;;
34960;SDS011;30789;52.030;7.110;2024-01-27T03:42:11;13.40;;;4.28;;
34960;SDS011;30789;52.030;7.110;2024-01-27T03:44:38;19.60;;;4.80;;
34960;SDS011;30789;52.030;7.110;2024-01-27T03:47:04;12.02;;;4.43;;
34960;SDS011;30789;52.030;7.110;2024-01-27T03:49:34;13.27;;;4.20;;
34960;SDS011;30789;52.030;7.110;2024-01-27T03:52:00;15.45;;;5.15;;
34960;SDS011;30789;52.030;7.110;2024-01-27T03:54:30;13.90;;;4.72;;
34960;SDS011;30789;52.030;7.110;2024-01-27T03:56:56;15.43;;;4.72;;
34960;SDS011;30789;52.030;7.110;2024-01-27T03:59:23;20.23;;;4.47;;
34960;SDS011;30789;52.030;7.110;2024-01-27T04:01:53;16.33;;;4.82;;
34960;SDS011;30789;52.030;7.110;2024-01-27T04:04:22;18.00;;;4.70;;
34960;SDS011;30789;52.030;7.110;2024-01-27T04:06:50;17.27;;;4.93;;
34960;SDS011;30789;52.030;7.110;2024-01-27T04:09:17;11.98;;;4.30;;
34960;SDS011;30789;52.030;7.110;2024-01-27T04:11:43;18.08;;;5.45;;
34960;SDS011;30789;52.030;7.110;2024-01-27T04:14:10;12.40;;;4.70;;
34960;SDS011;30789;52.030;7.110;2024-01-27T04:16:37;14.48;;;5.55;;
34960;SDS011;30789;52.030;7.110;2024-01-27T04:19:06;12.80;;;5.20;;
34960;SDS011;30789;52.030;7.110;2024-01-27T04:21:32;15.15;;;5.53;;
34960;SDS011;30789;52.030;7.110;2024-01-27T04:24:02;17.67;;;5.55;;
34960;SDS011;30789;52.030;7.110;2024-01-27T04:26:32;18.70;;;5.47;;
34960;SDS011;30789;52.030;7.110;2024-01-27T04:28:59;19.33;;;5.57;;
34960;SDS011;30789;52.030;7.110;2024-01-27T04:31:25;16.27;;;5.40;;
34960;SDS011;30789;52.030;7.110;2024-01-27T04:33:52;16.85;;;5.85;;
34960;SDS011;30789;52.030;7.110;2024-01-27T04:36:26;16.48;;;5.50;;
34960;SDS011;30789;52.030;7.110;2024-01-27T04:38:56;11.65;;;5.55;;
34960;SDS011;30789;52.030;7.110;2024-01-27T04:41:30;11.77;;;5.20;;
34960;SDS011;30789;52.030;7.110;2024-01-27T04:43:58;15.30;;;5.88;;
34960;SDS011;30789;52.030;7.110;2024-01-27T04:46:25;14.05;;;5.07;;
34960;SDS011;30789;52.030;7.110;2024-01-27T04:48:52;14.65;;;5.72;;
34960;SDS011;30789;52.030;7.110;2024-01-27T04:51:18;21.10;;;6.00;;
34960;SDS011;30789;52.030;7.110;2024-01-27T04:53:45;17.15;;;6.13;;
34960;SDS011;30789;52.030;7.110;2024-01-27T04:56:15;21.83;;;6.22;;
34960;SDS011;30789;52.030;7.110;2024-01-27T04:58:43;19.63;;;8.23;;
34960;SDS011;30789;52.030;7.110;2024-01-27T05:01:10;21.05;;;7.60;;
34960;SDS011;30789;52.030;7.110;2024-01-27T05:06:03;9.52;;;5.78;;
34960;SDS011;30789;52.030;7.110;2024-01-27T05:08:36;17.45;;;5.82;;
34960;SDS011;30789;52.030;7.110;2024-01-27T05:11:04;18.30;;;6.53;;
34960;SDS011;30789;52.030;7.110;2024-01-27T05:13:30;16.80;;;6.50;;
34960;SDS011;30789;52.030;7.110;2024-01-27T05:15:59;19.38;;;7.25;;
34960;SDS011;30789;52.030;7.110;2024-01-27T05:18:25;23.17;;;7.30;;
34960;SDS011;30789;52.030;7.110;2024-01-27T05:20:55;15.15;;;7.30;;
34960;SDS011;30789;52.030;7.110;2024-01-27T05:23:24;16.42;;;7.18;;
34960;SDS011;30789;52.030;7.110;2024-01-27T05:25:51;17.10;;;7.20;;
34960;SDS011;30789;52.030;7.110;2024-01-27T05:28:19;16.52;;;7.22;;
34960;SDS011;30789;52.030;7.110;2024-01-27T05:30:46;17.83;;;7.13;;
34960;SDS011;30789;52.030;7.110;2024-01-27T05:33:18;21.70;;;7.65;;
34960;SDS011;30789;52.030;7.110;2024-01-27T05:35:47;15.32;;;7.85;;
34960;SDS011;30789;52.030;7.110;2024-01-27T05:38:20;21.23;;;8.68;;
34960;SDS011;30789;52.030;7.110;2024-01-27T05:40:51;16.95;;;7.95;;
34960;SDS011;30789;52.030;7.110;2024-01-27T05:43:20;23.33;;;8.65;;
34960;SDS011;30789;52.030;7.110;2024-01-27T05:45:49;23.63;;;8.70;;
34960;SDS011;30789;52.030;7.110;2024-01-27T05:48:21;18.33;;;7.60;;
34960;SDS011;30789;52.030;7.110;2024-01-27T05:50:54;17.67;;;8.23;;
34960;SDS011;30789;52.030;7.110;2024-01-27T05:53:23;20.13;;;8.82;;
34960;SDS011;30789;52.030;7.110;2024-01-27T05:55:50;13.88;;;8.63;;
34960;SDS011;30789;52.030;7.110;2024-01-27T05:58:17;20.60;;;7.85;;
34960;SDS011;30789;52.030;7.110;2024-01-27T06:00:46;18.00;;;9.55;;
34960;SDS011;30789;52.030;7.110;2024-01-27T06:03:14;20.38;;;9.13;;
34960;SDS011;30789;52.030;7.110;2024-01-27T06:05:50;19.33;;;8.80;;
34960;SDS011;30789;52.030;7.110;2024-01-27T06:08:19;16.27;;;8.95;;
34960;SDS011;30789;52.030;7.110;2024-01-27T06:10:46;21.42;;;8.30;;
34960;SDS011;30789;52.030;7.110;2024-01-27T06:13:21;18.13;;;9.05;;
34960;SDS011;30789;52.030;7.110;2024-01-27T06:15:47;16.17;;;8.30;;
34960;SDS011;30789;52.030;7.110;2024-01-27T07:08:11;19.33;;;9.70;;
34960;SDS011;30789;52.030;7.110;2024-01-27T07:10:48;17.58;;;9.95;;
34960;SDS011;30789;52.030;7.110;2024-01-27T07:16:42;23.17;;;10.18;;
34960;SDS011;30789;52.030;7.110;2024-01-27T07:19:14;17.73;;;9.77;;
34960;SDS011;30789;52.030;7.110;2024-01-27T07:21:42;19.15;;;10.80;;
34960;SDS011;30789;52.030;7.110;2024-01-27T07:24:10;17.90;;;10.55;;
34960;SDS011;30789;52.030;7.110;2024-01-27T07:26:40;27.35;;;11.52;;
34960;SDS011;30789;52.030;7.110;2024-01-27T07:29:13;25.73;;;11.43;;
34960;SDS011;30789;52.030;7.110;2024-01-27T07:31:42;26.27;;;12.82;;
34960;SDS011;30789;52.030;7.110;2024-01-27T07:34:25;23.58;;;12.85;;
34960;SDS011;30789;52.030;7.110;2024-01-27T07:36:51;20.80;;;12.65;;
34960;SDS011;30789;52.030;7.110;2024-01-27T07:39:21;21.02;;;12.18;;
34960;SDS011;30789;52.030;7.110;2024-01-27T07:41:48;22.52;;;13.80;;
34960;SDS011;30789;52.030;7.110;2024-01-27T07:44:31;23.92;;;14.18;;
34960;SDS011;30789;52.030;7.110;2024-01-27T07:47:13;29.13;;;14.82;;
34960;SDS011;30789;52.030;7.110;2024-01-27T07:49:50;20.38;;;12.90;;
34960;SDS011;30789;52.030;7.110;2024-01-27T07:52:22;27.80;;;13.93;;
34960;SDS011;30789;52.030;7.110;2024-01-27T07:57:50;23.08;;;14.38;;
34960;SDS011;30789;52.030;7.110;2024-01-27T08:00:19;23.08;;;14.10;;
34960;SDS011;30789;52.030;7.110;2024-01-27T08:02:48;25.90;;;15.35;;
34960;SDS011;30789;52.030;7.110;2024-01-27T08:05:15;29.08;;;14.77;;
34960;SDS011;30789;52.030;7.110;2024-01-27T08:07:41;23.52;;;15.05;;
34960;SDS011;30789;52.030;7.110;2024-01-27T08:10:10;22.67;;;14.48;;
34960;SDS011;30789;52.030;7.110;2024-01-27T08:12:41;27.08;;;14.10;;
34960;SDS011;30789;52.030;7.110;2024-01-27T08:15:08;27.98;;;14.38;;
34960;SDS011;30789;52.030;7.110;2024-01-27T08:17:35;25.52;;;13.82;;
34960;SDS011;30789;52.030;7.110;2024-01-27T08:20:02;22.67;;;13.27;;
34960;SDS011;30789;52.030;7.110;2024-01-27T08:22:36;26.35;;;14.48;;
34960;SDS011;30789;52.030;7.110;2024-01-27T08:25:03;27.25;;;14.88;;
34960;SDS011;30789;52.030;7.110;2024-01-27T08:27:33;30.05;;;14.60;;
34960;SDS011;30789;52.030;7.110;2024-01-27T08:30:02;23.60;;;13.32;;
34960;SDS011;30789;52.030;7.110;2024-01-27T08:32:34;25.30;;;12.52;;
34960;SDS011;30789;52.030;7.110;2024-01-27T08:35:01;24.52;;;13.57;;
34960;SDS011;30789;52.030;7.110;2024-01-27T08:37:33;32.50;;;12.82;;
34960;SDS011;30789;52.030;7.110;2024-01-27T08:40:04;29.80;;;12.55;;
34960;SDS011;30789;52.030;7.110;2024-01-27T08:42:33;27.20;;;12.88;;
34960;SDS011;30789;52.030;7.110;2024-01-27T08:45:04;24.58;;;13.10;;
34960;SDS011;30789;52.030;7.110;2024-01-27T08:47:34;26.73;;;13.40;;
34960;SDS011;30789;52.030;7.110;2024-01-27T08:50:07;21.45;;;11.80;;
34960;SDS011;30789;52.030;7.110;2024-01-27T08:52:34;21.58;;;13.13;;
34960;SDS011;30789;52.030;7.110;2024-01-27T08:55:01;18.10;;;12.20;;
34960;SDS011;30789;52.030;7.110;2024-01-27T09:00:13;23.88;;;13.65;;
34960;SDS011;30789;52.030;7.110;2024-01-27T09:02:43;24.15;;;12.18;;
34960;SDS011;30789;52.030;7.110;2024-01-27T09:05:09;19.67;;;12.15;;
34960;SDS011;30789;52.030;7.110;2024-01-27T09:07:36;19.20;;;12.32;;
34960;SDS011;30789;52.030;7.110;2024-01-27T09:10:03;25.27;;;13.07;;
34960;SDS011;30789;52.030;7.110;2024-01-27T09:12:31;24.25;;;12.77;;
34960;SDS011;30789;52.030;7.110;2024-01-27T09:14:58;25.02;;;12.27;;
34960;SDS011;30789;52.030;7.110;2024-01-27T09:17:26;26.25;;;12.70;;
34960;SDS011;30789;52.030;7.110;2024-01-27T09:19:53;19.92;;;12.15;;
34960;SDS011;30789;52.030;7.110;2024-01-27T09:22:22;25.65;;;12.73;;
34960;SDS011;30789;52.030;7.110;2024-01-27T09:24:48;23.02;;;12.20;;
34960;SDS011;30789;52.030;7.110;2024-01-27T09:27:20;24.58;;;13.07;;
34960;SDS011;30789;52.030;7.110;2024-01-27T09:29:48;25.33;;;12.95;;
34960;SDS011;30789;52.030;7.110;2024-01-27T09:32:17;26.05;;;13.20;;
34960;SDS011;30789;52.030;7.110;2024-01-27T09:59:15;23.15;;;11.93;;
34960;SDS011;30789;52.030;7.110;2024-01-27T10:04:19;17.08;;;10.05;;
34960;SDS011;30789;52.030;7.110;2024-01-27T10:07:05;30.67;;;11.52;;
34960;SDS011;30789;52.030;7.110;2024-01-27T10:09:31;24.73;;;11.55;;
34960;SDS011;30789;52.030;7.110;2024-01-27T10:12:19;21.23;;;10.55;;
34960;SDS011;30789;52.030;7.110;2024-01-27T10:21:46;19.60;;;10.15;;
34960;SDS011;30789;52.030;7.110;2024-01-27T10:24:14;21.85;;;10.85;;
34960;SDS011;30789;52.030;7.110;2024-01-27T10:26:48;18.55;;;9.90;;
34960;SDS011;30789;52.030;7.110;2024-01-27T10:29:29;22.73;;;9.50;;
34960;SDS011;30789;52.030;7.110;2024-01-27T10:32:08;20.70;;;9.27;;
34960;SDS011;30789;52.030;7.110;2024-01-27T10:48:06;25.00;;;9.35;;
34960;SDS011;30789;52.030;7.110;2024-01-27T10:50:35;20.65;;;9.05;;
34960;SDS011;30789;52.030;7.110;2024-01-27T10:53:08;21.15;;;8.77;;
34960;SDS011;30789;52.030;7.110;2024-01-27T11:03:03;21.00;;;8.05;;
34960;SDS011;30789;52.030;7.110;2024-01-27T11:08:05;18.02;;;8.07;;
34960;SDS011;30789;52.030;7.110;2024-01-27T11:10:41;14.88;;;7.07;;
34960;SDS011;30789;52.030;7.110;2024-01-27T11:13:20;20.83;;;7.55;;
34960;SDS011;30789;52.030;7.110;2024-01-27T11:15:53;13.70;;;7.22;;
34960;SDS011;30789;52.030;7.110;2024-01-27T11:18:21;10.07;;;5.93;;
34960;SDS011;30789;52.030;7.110;2024-01-27T11:20:52;16.00;;;6.43;;
34960;SDS011;30789;52.030;7.110;2024-01-27T11:23:19;15.10;;;6.72;;
34960;SDS011;30789;52.030;7.110;2024-01-27T11:26:02;18.70;;;6.95;;
34960;SDS011;30789;52.030;7.110;2024-01-27T11:28:29;12.18;;;6.47;;
34960;SDS011;30789;52.030;7.110;2024-01-27T11:31:08;18.65;;;6.30;;
34960;SDS011;30789;52.030;7.110;2024-01-27T11:40:15;17.63;;;6.10;;
34960;SDS011;30789;52.030;7.110;2024-01-27T11:49:26;18.38;;;7.22;;
34960;SDS011;30789;52.030;7.110;2024-01-27T13:31:11;11.60;;;4.40;;
34960;SDS011;30789;52.030;7.110;2024-01-27T13:34:40;14.52;;;4.88;;
34960;SDS011;30789;52.030;7.110;2024-01-27T13:37:06;11.45;;;4.82;;
34960;SDS011;30789;52.030;7.110;2024-01-27T13:42:55;11.50;;;4.53;;
34960;SDS011;30789;52.030;7.110;2024-01-27T13:45:22;10.82;;;4.30;;
34960;SDS011;30789;52.030;7.110;2024-01-27T13:47:51;8.77;;;3.92;;
34960;SDS011;30789;52.030;7.110;2024-01-27T13:50:28;12.88;;;4.30;;
34960;SDS011;30789;52.030;7.110;2024-01-27T16:28:57;23.90;;;9.85;;
34960;SDS011;30789;52.030;7.110;2024-01-27T16:34:36;14.75;;;6.63;;
34960;SDS011;30789;52.030;7.110;2024-01-27T16:37:03;12.63;;;6.20;;
34960;SDS011;30789;52.030;7.110;2024-01-27T16:39:50;13.27;;;5.45;;
34960;SDS011;30789;52.030;7.110;2024-01-27T16:42:17;11.27;;;4.85;;
34960;SDS011;30789;52.030;7.110;2024-01-27T16:44:46;12.05;;;5.38;;
34960;SDS011;30789;52.030;7.110;2024-01-27T16:47:15;20.10;;;8.20;;
34960;SDS011;30789;52.030;7.110;2024-01-27T16:52:35;14.73;;;9.65;;
34960;SDS011;30789;52.030;7.110;2024-01-27T16:55:06;14.25;;;8.05;;
34960;SDS011;30789;52.030;7.110;2024-01-27T16:57:34;17.38;;;6.15;;
34960;SDS011;30789;52.030;7.110;2024-01-27T17:00:05;14.80;;;5.75;;
34960;SDS011;30789;52.030;7.110;2024-01-27T17:02:35;15.85;;;5.30;;
34960;SDS011;30789;52.030;7.110;2024-01-27T17:05:04;11.05;;;5.45;;
34960;SDS011;30789;52.030;7.110;2024-01-27T17:07:30;15.15;;;6.68;;
34960;SDS011;30789;52.030;7.110;2024-01-27T17:09:57;18.92;;;8.88;;
34960;SDS011;30789;52.030;7.110;2024-01-27T17:12:27;25.25;;;10.02;;
34960;SDS011;30789;52.030;7.110;2024-01-27T17:14:53;24.13;;;10.13;;
34960;SDS011;30789;52.030;7.110;2024-01-27T17:17:21;15.80;;;8.75;;
34960;SDS011;30789;52.030;7.110;2024-01-27T17:19:48;13.98;;;7.25;;
34960;SDS011;30789;52.030;7.110;2024-01-27T17:22:15;15.35;;;6.90;;
34960;SDS011;30789;52.030;7.110;2024-01-27T17:24:43;14.30;;;6.45;;
34960;SDS011;30789;52.030;7.110;2024-01-27T17:27:09;15.15;;;6.10;;
34960;SDS011;30789;52.030;7.110;2024-01-27T17:29:39;15.98;;;6.72;;
34960;SDS011;30789;52.030;7.110;2024-01-27T17:32:06;17.65;;;7.20;;
34960;SDS011;30789;52.030;7.110;2024-01-27T17:34:34;11.55;;;6.47;;
34960;SDS011;30789;52.030;7.110;2024-01-27T17:37:01;14.90;;;6.07;;
34960;SDS011;30789;52.030;7.110;2024-01-27T17:39:27;18.45;;;5.28;;
34960;SDS011;30789;52.030;7.110;2024-01-27T17:41:59;13.57;;;5.53;;
34960;SDS011;30789;52.030;7.110;2024-01-27T17:44:28;11.75;;;5.30;;
34960;SDS011;30789;52.030;7.110;2024-01-27T17:46:55;12.25;;;4.63;;
34960;SDS011;30789;52.030;7.110;2024-01-27T17:49:21;14.27;;;5.45;;
34960;SDS011;30789;52.030;7.110;2024-01-27T17:51:50;14.00;;;4.60;;
34960;SDS011;30789;52.030;7.110;2024-01-27T17:54:17;12.55;;;5.90;;
34960;SDS011;30789;52.030;7.110;2024-01-27T17:56:44;10.10;;;5.65;;
34960;SDS011;30789;52.030;7.110;2024-01-27T17:59:14;11.85;;;5.80;;
34960;SDS011;30789;52.030;7.110;2024-01-27T18:01:41;18.48;;;6.05;;
34960;SDS011;30789;52.030;7.110;2024-01-27T18:04:07;15.00;;;5.85;;
34960;SDS011;30789;52.030;7.110;2024-01-27T18:06:34;13.88;;;5.28;;
34960;SDS011;30789;52.030;7.110;2024-01-27T18:09:03;9.73;;;4.80;;
34960;SDS011;30789;52.030;7.110;2024-01-27T18:11:30;12.27;;;5.05;;
34960;SDS011;30789;52.030;7.110;2024-01-27T18:13:57;13.80;;;5.38;;
34960;SDS011;30789;52.030;7.110;2024-01-27T18:16:23;14.27;;;5.30;;
34960;SDS011;30789;52.030;7.110;2024-01-27T18:18:50;18.83;;;5.38;;
34960;SDS011;30789;52.030;7.110;2024-01-27T18:21:20;11.77;;;5.43;;
34960;SDS011;30789;52.030;7.110;2024-01-27T18:23:47;13.65;;;5.38;;
34960;SDS011;30789;52.030;7.110;2024-01-27T18:26:15;15.52;;;6.43;;
34960;SDS011;30789;52.030;7.110;2024-01-27T18:28:41;13.52;;;6.28;;
34960;SDS011;30789;52.030;7.110;2024-01-27T18:31:08;21.05;;;6.68;;
34960;SDS011;30789;52.030;7.110;2024-01-27T18:33:37;13.38;;;5.75;;
34960;SDS011;30789;52.030;7.110;2024-01-27T18:36:05;17.52;;;5.60;;
34960;SDS011;30789;52.030;7.110;2024-01-27T18:38:32;16.27;;;5.57;;
34960;SDS011;30789;52.030;7.110;2024-01-27T18:41:01;13.98;;;6.75;;
34960;SDS011;30789;52.030;7.110;2024-01-27T18:43:29;18.52;;;10.77;;
34960;SDS011;30789;52.030;7.110;2024-01-27T18:45:59;23.52;;;13.07;;
34960;SDS011;30789;52.030;7.110;2024-01-27T18:48:25;23.02;;;13.95;;
34960;SDS011;30789;52.030;7.110;2024-01-27T18:50:54;23.98;;;10.75;;
34960;SDS011;30789;52.030;7.110;2024-01-27T18:53:20;15.88;;;8.98;;
34960;SDS011;30789;52.030;7.110;2024-01-27T18:55:47;16.25;;;8.00;;
34960;SDS011;30789;52.030;7.110;2024-01-27T18:58:14;17.88;;;7.28;;
34960;SDS011;30789;52.030;7.110;2024-01-27T19:00:42;13.80;;;6.70;;
34960;SDS011;30789;52.030;7.110;2024-01-27T19:03:09;16.98;;;7.20;;
34960;SDS011;30789;52.030;7.110;2024-01-27T19:05:35;17.20;;;7.40;;
34960;SDS011;30789;52.030;7.110;2024-01-27T19:08:02;15.15;;;7.47;;
34960;SDS011;30789;52.030;7.110;2024-01-27T19:10:29;15.13;;;6.90;;
34960;SDS011;30789;52.030;7.110;2024-01-27T19:12:57;16.15;;;6.95;;
34960;SDS011;30789;52.030;7.110;2024-01-27T19:15:24;17.40;;;7.13;;
34960;SDS011;30789;52.030;7.110;2024-01-27T19:17:52;19.52;;;7.75;;
34960;SDS011;30789;52.030;7.110;2024-01-27T19:20:19;12.48;;;7.28;;
34960;SDS011;30789;52.030;7.110;2024-01-27T19:22:46;15.63;;;8.43;;
34960;SDS011;30789;52.030;7.110;2024-01-27T19:25:15;20.88;;;8.27;;
34960;SDS011;30789;52.030;7.110;2024-01-27T19:27:40;21.77;;;9.05;;
34960;SDS011;30789;52.030;7.110;2024-01-27T19:30:07;20.50;;;8.15;;
34960;SDS011;30789;52.030;7.110;2024-01-27T19:32:34;22.88;;;9.05;;
34960;SDS011;30789;52.030;7.110;2024-01-27T19:35:04;15.05;;;8.63;;
34960;SDS011;30789;52.030;7.110;2024-01-27T19:37:31;18.05;;;8.50;;
34960;SDS011;30789;52.030;7.110;2024-01-27T19:39:58;14.07;;;8.20;;
34960;SDS011;30789;52.030;7.110;2024-01-27T19:42:25;19.02;;;8.80;;
34960;SDS011;30789;52.030;7.110;2024-01-27T19:44:52;22.83;;;8.55;;
34960;SDS011;30789;52.030;7.110;2024-01-27T19:47:19;21.13;;;9.15;;
34960;SDS011;30789;52.030;7.110;2024-01-27T19:49:46;21.35;;;9.88;;
34960;SDS011;30789;52.030;7.110;2024-01-27T19:52:14;18.83;;;9.93;;
34960;SDS011;30789;52.030;7.110;2024-01-27T19:54:41;26.40;;;10.27;;
34960;SDS011;30789;52.030;7.110;2024-01-27T19:57:08;16.30;;;8.93;;
34960;SDS011;30789;52.030;7.110;2024-01-27T19:59:34;18.45;;;8.55;;
34960;SDS011;30789;52.030;7.110;2024-01-27T20:02:01;19.80;;;9.00;;
34960;SDS011;30789;52.030;7.110;2024-01-27T20:04:28;18.08;;;8.88;;
34960;SDS011;30789;52.030;7.110;2024-01-27T20:06:55;23.98;;;9.43;;
34960;SDS011;30789;52.030;7.110;2024-01-27T20:09:24;16.63;;;8.10;;
34960;SDS011;30789;52.030;7.110;2024-01-27T20:11:52;17.52;;;9.50;;
34960;SDS011;30789;52.030;7.110;2024-01-27T20:14:19;22.67;;;9.50;;
34960;SDS011;30789;52.030;7.110;2024-01-27T20:16:45;18.63;;;9.38;;
34960;SDS011;30789;52.030;7.110;2024-01-27T20:19:12;17.42;;;9.50;;
34960;SDS011;30789;52.030;7.110;2024-01-27T20:21:39;23.13;;;9.70;;
34960;SDS011;30789;52.030;7.110;2024-01-27T20:24:06;20.40;;;10.35;;
34960;SDS011;30789;52.030;7.110;2024-01-27T20:26:34;24.55;;;11.50;;
34960;SDS011;30789;52.030;7.110;2024-01-27T20:29:01;19.13;;;11.40;;
34960;SDS011;30789;52.030;7.110;2024-01-27T20:31:28;21.60;;;11.23;;
34960;SDS011;30789;52.030;7.110;2024-01-27T20:33:54;23.52;;;12.25;;
34960;SDS011;30789;52.030;7.110;2024-01-27T20:36:22;23.05;;;11.88;;
34960;SDS011;30789;52.030;7.110;2024-01-27T20:38:49;15.90;;;9.40;;
34960;SDS011;30789;52.030;7.110;2024-01-27T20:41:18;17.42;;;9.23;;
34960;SDS011;30789;52.030;7.110;2024-01-27T20:43:47;20.55;;;8.48;;
34960;SDS011;30789;52.030;7.110;2024-01-27T20:46:14;19.75;;;8.95;;
34960;SDS011;30789;52.030;7.110;2024-01-27T20:48:41;23.65;;;10.88;;
34960;SDS011;30789;52.030;7.110;2024-01-27T20:51:08;24.13;;;11.27;;
34960;SDS011;30789;52.030;7.110;2024-01-27T20:53:34;21.55;;;9.98;;
34960;SDS011;30789;52.030;7.110;2024-01-27T20:56:02;20.65;;;9.35;;
34960;SDS011;30789;52.030;7.110;2024-01-27T20:58:29;21.25;;;9.82;;
34960;SDS011;30789;52.030;7.110;2024-01-27T21:00:57;25.60;;;11.50;;
34960;SDS011;30789;52.030;7.110;2024-01-27T21:03:24;23.50;;;10.07;;
34960;SDS011;30789;52.030;7.110;2024-01-27T21:05:50;20.75;;;9.85;;
34960;SDS011;30789;52.030;7.110;2024-01-27T21:08:17;22.80;;;9.43;;
34960;SDS011;30789;52.030;7.110;2024-01-27T21:10:44;18.02;;;9.15;;
34960;SDS011;30789;52.030;7.110;2024-01-27T21:13:10;19.27;;;8.10;;
34960;SDS011;30789;52.030;7.110;2024-01-27T21:15:36;17.80;;;8.65;;
34960;SDS011;30789;52.030;7.110;2024-01-27T21:18:05;15.90;;;8.68;;